Archival Weather

Chicago O'Hare International

Chicago, Illinois (KORD)

Report from: Tuesday, December 27, 2022 8:51 PM CST
Current time: Monday, June 24, 2024 3:53 AM CDT

Current weather – Weather history – Daily summaries
Weather forecast

Temperature-4.4°C (24.1°F)
Wind chill-11.9°C (10.6°F)
Dew point-7.8°C (18.0°F)
Winds 15 kts (7.7 m/s, 17.3 mph) South (190°)
Wind gusts 34 kts (17.5 m/s, 39.1 mph)
Peak wind 34 kts (17.5 m/s, 39.1 mph) South (180°) at 02:45
Visibility10 mi. (16.1 km)
Clouds Scattered clouds 1,300 ft. (396 m)
Ceiling: Broken clouds 25,000 ft. (7,620 m)
Altimeter29.88 in.Hg (1012 mB)
Relative humidity77 %
Density altitude-2,327 ft. (-709 m)
Sea-level pressure101.3 kPa (1013 mB, 29.91 in.Hg)
Remarks Automated weather observing station with precipitation discriminator
Pressure falling more quickly
Flight conditions Visual Meteorological Conditions
Raw dataKORD 280251Z 19015G34KT 10SM SCT013 BKN250 M04/M08 A2988 RMK AO2 PK WND 18034/0245 SLP129 T10441078 58025
An error has occurred. This application may no longer respond until reloaded. Reload 🗙